Terminal Aerodrome Forecast
Issued by NWS Amarillo, TX

Home | Current Version | Previous Version | Text Only | Print | Product List | Glossary On
Versions: 1 2 3 4 5 6 7 8 9 10 11 12 13 14
000
FTUS44 KAMA 241134
TAFDHT
TAF
KDHT 241134Z 2412/2512 29008KT P6SM SCT150
     FM242200 15008KT P6SM VCTS SCT090CB PROB30 2500/2506 P6SM -TSRA
      BKN080CB
     FM250600 36008KT P6SM OVC200=

USA.gov is the U.S. government's official web portal to all federal, state and local government web resources and services.